KDGW/DGW METAR and TAF weather

Enter ICAO airport designator
Station Type Date Time Source
KDGW METAR 2020/06/06 20:53 UTC NOAA

KDGW 062053Z AUTO 28018G26KT 10SM SCT070 BKN110 24/09 A2970 RMK AO2 PK WND 28026/2049 PRESFR SLP991 T02390089 58011


Station Type Date Time Source
KDGW Decoded METAR 2020/06/06 20:53 UTC NOAA

DOUGLAS CONVERSE COUNTY, WY, United States (KDGW) 42-48N 105-23W 1499M
Jun 06, 2020 - 04:53 PM EDT / 2020.06.06 2053 UTC
Wind: from the W (280 degrees) at 21 MPH (18 KT) gusting to 30 MPH (26 KT):0
Visibility: 10 mile(s):0
Sky conditions: mostly cloudy
Temperature: 75.0 F (23.9 C)
Dew Point: 48.0 F (8.9 C)
Relative Humidity: 38%
Pressure (altimeter): 29.7 in. Hg (1005 hPa)
Pressure tendency: falling rapidly - 0.03 inches (1.1 hPa) lower than three hours ago
ob: KDGW 062053Z AUTO 28018G26KT 10SM SCT070 BKN110 24/09 A2970 RMK AO2 PK WND 28026/2049 PRESFR SLP991 T02390089 58011
cycle: 21

Station Type Date Time Source
KDGW TAF UTC NOAA

Error!

Example: see airport list